sensor_id;sensor_type;location;lat;lon;timestamp;temperature;humidity
4306;DHT22;2166;49.926;8.608;2023-07-29T00:01:17;18.50;78.00
4306;DHT22;2166;49.926;8.608;2023-07-29T00:03:46;18.50;78.10
4306;DHT22;2166;49.926;8.608;2023-07-29T00:06:14;18.60;78.10
4306;DHT22;2166;49.926;8.608;2023-07-29T00:08:43;18.60;78.00
4306;DHT22;2166;49.926;8.608;2023-07-29T00:11:11;18.70;78.00
4306;DHT22;2166;49.926;8.608;2023-07-29T00:13:40;18.70;78.00
4306;DHT22;2166;49.926;8.608;2023-07-29T00:16:08;18.70;77.90
4306;DHT22;2166;49.926;8.608;2023-07-29T00:18:38;18.70;77.80
4306;DHT22;2166;49.926;8.608;2023-07-29T00:21:07;18.70;77.80
4306;DHT22;2166;49.926;8.608;2023-07-29T00:23:35;18.70;77.70
4306;DHT22;2166;49.926;8.608;2023-07-29T00:26:04;18.70;77.70
4306;DHT22;2166;49.926;8.608;2023-07-29T00:28:32;18.70;77.60
4306;DHT22;2166;49.926;8.608;2023-07-29T00:31:01;18.70;77.60
4306;DHT22;2166;49.926;8.608;2023-07-29T00:33:30;18.80;77.60
4306;DHT22;2166;49.926;8.608;2023-07-29T00:36:00;18.80;77.50
4306;DHT22;2166;49.926;8.608;2023-07-29T00:38:30;18.80;77.50
4306;DHT22;2166;49.926;8.608;2023-07-29T00:40:58;18.80;77.30
4306;DHT22;2166;49.926;8.608;2023-07-29T00:43:27;18.90;77.30
4306;DHT22;2166;49.926;8.608;2023-07-29T00:45:56;18.90;77.20
4306;DHT22;2166;49.926;8.608;2023-07-29T00:48:25;18.80;77.10
4306;DHT22;2166;49.926;8.608;2023-07-29T00:50:55;18.90;77.10
4306;DHT22;2166;49.926;8.608;2023-07-29T00:53:25;18.80;77.00
4306;DHT22;2166;49.926;8.608;2023-07-29T00:55:54;18.80;76.90
4306;DHT22;2166;49.926;8.608;2023-07-29T00:58:22;18.80;76.80
4306;DHT22;2166;49.926;8.608;2023-07-29T01:00:51;18.80;76.80
4306;DHT22;2166;49.926;8.608;2023-07-29T01:03:21;18.80;76.80
4306;DHT22;2166;49.926;8.608;2023-07-29T01:05:57;18.80;76.80
4306;DHT22;2166;49.926;8.608;2023-07-29T01:08:45;18.90;76.80
4306;DHT22;2166;49.926;8.608;2023-07-29T01:11:27;18.90;76.80
4306;DHT22;2166;49.926;8.608;2023-07-29T01:14:05;19.00;76.90
4306;DHT22;2166;49.926;8.608;2023-07-29T01:16:38;19.00;76.80
4306;DHT22;2166;49.926;8.608;2023-07-29T01:19:11;19.10;76.60
4306;DHT22;2166;49.926;8.608;2023-07-29T01:21:42;19.10;76.50
4306;DHT22;2166;49.926;8.608;2023-07-29T01:24:12;19.10;76.30
4306;DHT22;2166;49.926;8.608;2023-07-29T01:26:40;19.20;76.80
4306;DHT22;2166;49.926;8.608;2023-07-29T01:29:09;19.20;76.70
4306;DHT22;2166;49.926;8.608;2023-07-29T01:31:43;19.30;76.60
4306;DHT22;2166;49.926;8.608;2023-07-29T01:34:13;19.30;76.50
4306;DHT22;2166;49.926;8.608;2023-07-29T01:36:45;19.30;76.40
4306;DHT22;2166;49.926;8.608;2023-07-29T01:39:17;19.30;76.40
4306;DHT22;2166;49.926;8.608;2023-07-29T01:41:46;19.30;76.40
4306;DHT22;2166;49.926;8.608;2023-07-29T01:44:15;19.30;76.40
4306;DHT22;2166;49.926;8.608;2023-07-29T01:46:45;19.30;76.40
4306;DHT22;2166;49.926;8.608;2023-07-29T01:49:13;19.40;76.40
4306;DHT22;2166;49.926;8.608;2023-07-29T01:51:42;19.40;76.30
4306;DHT22;2166;49.926;8.608;2023-07-29T01:54:10;19.40;76.30
4306;DHT22;2166;49.926;8.608;2023-07-29T01:56:41;19.40;76.20
4306;DHT22;2166;49.926;8.608;2023-07-29T01:59:09;19.40;76.20
4306;DHT22;2166;49.926;8.608;2023-07-29T02:01:37;19.40;76.20
4306;DHT22;2166;49.926;8.608;2023-07-29T02:04:06;19.50;76.10
4306;DHT22;2166;49.926;8.608;2023-07-29T02:06:35;19.40;76.10
4306;DHT22;2166;49.926;8.608;2023-07-29T02:09:04;19.40;76.10
4306;DHT22;2166;49.926;8.608;2023-07-29T02:11:33;19.40;76.10
4306;DHT22;2166;49.926;8.608;2023-07-29T02:14:03;19.40;76.10
4306;DHT22;2166;49.926;8.608;2023-07-29T02:16:32;19.40;76.10
4306;DHT22;2166;49.926;8.608;2023-07-29T02:19:05;19.40;76.20
4306;DHT22;2166;49.926;8.608;2023-07-29T02:21:33;19.30;76.20
4306;DHT22;2166;49.926;8.608;2023-07-29T02:24:02;19.30;76.30
4306;DHT22;2166;49.926;8.608;2023-07-29T02:26:30;19.30;76.30
4306;DHT22;2166;49.926;8.608;2023-07-29T02:29:01;19.20;76.40
4306;DHT22;2166;49.926;8.608;2023-07-29T02:31:31;19.10;76.40
4306;DHT22;2166;49.926;8.608;2023-07-29T02:34:02;19.00;76.60
4306;DHT22;2166;49.926;8.608;2023-07-29T02:36:30;19.00;76.80
4306;DHT22;2166;49.926;8.608;2023-07-29T02:39:00;18.90;76.90
4306;DHT22;2166;49.926;8.608;2023-07-29T02:41:32;18.80;77.00
4306;DHT22;2166;49.926;8.608;2023-07-29T02:44:01;18.80;77.10
4306;DHT22;2166;49.926;8.608;2023-07-29T02:46:32;18.80;77.20
4306;DHT22;2166;49.926;8.608;2023-07-29T02:49:01;18.80;77.20
4306;DHT22;2166;49.926;8.608;2023-07-29T02:51:30;18.80;77.20
4306;DHT22;2166;49.926;8.608;2023-07-29T02:53:58;18.80;77.20
4306;DHT22;2166;49.926;8.608;2023-07-29T02:56:27;18.80;77.20
4306;DHT22;2166;49.926;8.608;2023-07-29T02:58:55;18.80;76.60
4306;DHT22;2166;49.926;8.608;2023-07-29T03:01:24;18.80;76.60
4306;DHT22;2166;49.926;8.608;2023-07-29T03:03:54;18.90;76.60
4306;DHT22;2166;49.926;8.608;2023-07-29T03:06:23;18.90;76.70
4306;DHT22;2166;49.926;8.608;2023-07-29T03:08:52;19.00;76.50
4306;DHT22;2166;49.926;8.608;2023-07-29T03:11:21;19.00;76.50
4306;DHT22;2166;49.926;8.608;2023-07-29T03:13:49;19.00;77.00
4306;DHT22;2166;49.926;8.608;2023-07-29T03:16:18;19.00;77.00
4306;DHT22;2166;49.926;8.608;2023-07-29T03:18:54;18.90;76.90
4306;DHT22;2166;49.926;8.608;2023-07-29T03:21:22;18.80;76.90
4306;DHT22;2166;49.926;8.608;2023-07-29T03:23:51;18.70;77.00
4306;DHT22;2166;49.926;8.608;2023-07-29T03:26:20;18.60;77.20
4306;DHT22;2166;49.926;8.608;2023-07-29T03:28:48;18.50;76.60
4306;DHT22;2166;49.926;8.608;2023-07-29T03:31:17;18.40;76.70
4306;DHT22;2166;49.926;8.608;2023-07-29T03:33:46;18.40;76.90
4306;DHT22;2166;49.926;8.608;2023-07-29T03:36:16;18.30;77.00
4306;DHT22;2166;49.926;8.608;2023-07-29T03:38:44;18.30;77.10
4306;DHT22;2166;49.926;8.608;2023-07-29T03:41:12;18.20;77.10
4306;DHT22;2166;49.926;8.608;2023-07-29T03:43:41;18.20;77.20
4306;DHT22;2166;49.926;8.608;2023-07-29T03:46:09;18.20;77.20
4306;DHT22;2166;49.926;8.608;2023-07-29T03:48:40;18.10;77.20
4306;DHT22;2166;49.926;8.608;2023-07-29T03:51:08;18.10;77.20
4306;DHT22;2166;49.926;8.608;2023-07-29T03:53:38;18.20;77.20
4306;DHT22;2166;49.926;8.608;2023-07-29T03:56:07;18.20;77.10
4306;DHT22;2166;49.926;8.608;2023-07-29T03:58:36;18.20;77.10
4306;DHT22;2166;49.926;8.608;2023-07-29T04:01:05;18.10;77.00
4306;DHT22;2166;49.926;8.608;2023-07-29T04:03:34;18.10;77.10
4306;DHT22;2166;49.926;8.608;2023-07-29T04:06:03;18.10;77.20
4306;DHT22;2166;49.926;8.608;2023-07-29T04:08:31;18.10;77.20
4306;DHT22;2166;49.926;8.608;2023-07-29T04:11:01;18.10;77.20
4306;DHT22;2166;49.926;8.608;2023-07-29T04:13:31;18.10;77.30
4306;DHT22;2166;49.926;8.608;2023-07-29T04:15:59;18.10;77.40
4306;DHT22;2166;49.926;8.608;2023-07-29T04:18:28;18.10;77.40
4306;DHT22;2166;49.926;8.608;2023-07-29T04:20:57;18.10;77.40
4306;DHT22;2166;49.926;8.608;2023-07-29T04:23:26;18.20;77.40
4306;DHT22;2166;49.926;8.608;2023-07-29T04:25:55;18.20;77.40
4306;DHT22;2166;49.926;8.608;2023-07-29T04:28:24;18.20;77.40
4306;DHT22;2166;49.926;8.608;2023-07-29T04:30:53;18.30;77.30
4306;DHT22;2166;49.926;8.608;2023-07-29T04:33:23;18.30;77.30
4306;DHT22;2166;49.926;8.608;2023-07-29T04:35:51;18.30;77.30
4306;DHT22;2166;49.926;8.608;2023-07-29T04:38:20;18.40;77.20
4306;DHT22;2166;49.926;8.608;2023-07-29T04:40:49;18.40;77.10
4306;DHT22;2166;49.926;8.608;2023-07-29T04:43:19;18.40;77.10
4306;DHT22;2166;49.926;8.608;2023-07-29T04:45:50;18.40;77.00
4306;DHT22;2166;49.926;8.608;2023-07-29T04:48:19;18.40;77.10
4306;DHT22;2166;49.926;8.608;2023-07-29T04:50:47;18.50;77.00
4306;DHT22;2166;49.926;8.608;2023-07-29T04:53:17;18.60;77.00
4306;DHT22;2166;49.926;8.608;2023-07-29T04:55:45;18.60;76.90
4306;DHT22;2166;49.926;8.608;2023-07-29T04:58:13;18.60;76.80
4306;DHT22;2166;49.926;8.608;2023-07-29T05:00:43;18.70;76.80
4306;DHT22;2166;49.926;8.608;2023-07-29T05:03:16;18.80;76.60
4306;DHT22;2166;49.926;8.608;2023-07-29T05:05:45;18.80;76.50
4306;DHT22;2166;49.926;8.608;2023-07-29T05:08:14;19.00;77.00
4306;DHT22;2166;49.926;8.608;2023-07-29T05:10:43;19.10;76.80
4306;DHT22;2166;49.926;8.608;2023-07-29T05:13:11;19.20;76.60
4306;DHT22;2166;49.926;8.608;2023-07-29T05:15:41;19.40;76.40
4306;DHT22;2166;49.926;8.608;2023-07-29T05:18:10;19.50;76.30
4306;DHT22;2166;49.926;8.608;2023-07-29T05:20:39;19.60;76.10
4306;DHT22;2166;49.926;8.608;2023-07-29T05:23:07;19.70;76.00
4306;DHT22;2166;49.926;8.608;2023-07-29T05:25:36;19.70;76.00
4306;DHT22;2166;49.926;8.608;2023-07-29T05:28:05;19.70;76.00
4306;DHT22;2166;49.926;8.608;2023-07-29T05:30:33;20.00;76.00
4306;DHT22;2166;49.926;8.608;2023-07-29T05:33:06;20.30;75.60
4306;DHT22;2166;49.926;8.608;2023-07-29T05:35:35;20.50;75.50
4306;DHT22;2166;49.926;8.608;2023-07-29T05:38:05;20.50;75.40
4306;DHT22;2166;49.926;8.608;2023-07-29T05:40:35;20.50;75.40
4306;DHT22;2166;49.926;8.608;2023-07-29T05:43:03;20.40;75.40
4306;DHT22;2166;49.926;8.608;2023-07-29T05:45:31;20.30;75.60
4306;DHT22;2166;49.926;8.608;2023-07-29T05:48:00;20.20;75.60
4306;DHT22;2166;49.926;8.608;2023-07-29T05:50:28;20.10;75.80
4306;DHT22;2166;49.926;8.608;2023-07-29T05:52:56;20.00;75.70
4306;DHT22;2166;49.926;8.608;2023-07-29T05:55:26;20.00;75.80
4306;DHT22;2166;49.926;8.608;2023-07-29T05:57:54;20.00;75.80
4306;DHT22;2166;49.926;8.608;2023-07-29T06:00:25;20.00;75.80
4306;DHT22;2166;49.926;8.608;2023-07-29T06:02:53;20.10;75.80
4306;DHT22;2166;49.926;8.608;2023-07-29T06:05:22;20.10;75.80
4306;DHT22;2166;49.926;8.608;2023-07-29T06:07:51;20.10;75.80
4306;DHT22;2166;49.926;8.608;2023-07-29T06:10:21;20.00;75.80
4306;DHT22;2166;49.926;8.608;2023-07-29T06:12:50;19.90;75.80
4306;DHT22;2166;49.926;8.608;2023-07-29T06:15:19;19.90;75.90
4306;DHT22;2166;49.926;8.608;2023-07-29T06:17:50;19.90;75.90
4306;DHT22;2166;49.926;8.608;2023-07-29T06:20:24;19.90;76.00
4306;DHT22;2166;49.926;8.608;2023-07-29T06:22:53;19.90;76.00
4306;DHT22;2166;49.926;8.608;2023-07-29T06:25:21;20.00;76.00
4306;DHT22;2166;49.926;8.608;2023-07-29T06:27:51;20.00;75.90
4306;DHT22;2166;49.926;8.608;2023-07-29T06:30:19;20.00;75.90
4306;DHT22;2166;49.926;8.608;2023-07-29T06:32:48;20.00;75.90
4306;DHT22;2166;49.926;8.608;2023-07-29T06:35:16;20.00;76.00
4306;DHT22;2166;49.926;8.608;2023-07-29T06:37:45;20.00;76.00
4306;DHT22;2166;49.926;8.608;2023-07-29T06:40:13;20.10;76.00
4306;DHT22;2166;49.926;8.608;2023-07-29T06:42:41;20.10;75.90
4306;DHT22;2166;49.926;8.608;2023-07-29T06:45:11;20.10;76.00
4306;DHT22;2166;49.926;8.608;2023-07-29T06:47:39;20.20;76.10
4306;DHT22;2166;49.926;8.608;2023-07-29T06:50:08;20.10;76.00
4306;DHT22;2166;49.926;8.608;2023-07-29T06:52:37;20.10;76.00
4306;DHT22;2166;49.926;8.608;2023-07-29T06:55:07;20.00;76.00
4306;DHT22;2166;49.926;8.608;2023-07-29T06:57:36;19.90;76.10
4306;DHT22;2166;49.926;8.608;2023-07-29T07:00:06;19.90;76.20
4306;DHT22;2166;49.926;8.608;2023-07-29T07:02:37;19.70;76.40
4306;DHT22;2166;49.926;8.608;2023-07-29T07:05:06;19.50;76.80
4306;DHT22;2166;49.926;8.608;2023-07-29T07:07:34;19.30;77.10
4306;DHT22;2166;49.926;8.608;2023-07-29T07:10:06;19.30;76.70
4306;DHT22;2166;49.926;8.608;2023-07-29T07:12:35;19.30;76.80
4306;DHT22;2166;49.926;8.608;2023-07-29T07:15:04;19.20;77.00
4306;DHT22;2166;49.926;8.608;2023-07-29T07:17:33;19.10;77.20
4306;DHT22;2166;49.926;8.608;2023-07-29T07:20:05;19.10;77.30
4306;DHT22;2166;49.926;8.608;2023-07-29T07:22:34;19.00;77.50
4306;DHT22;2166;49.926;8.608;2023-07-29T07:25:04;19.10;77.70
4306;DHT22;2166;49.926;8.608;2023-07-29T07:27:35;19.00;77.80
4306;DHT22;2166;49.926;8.608;2023-07-29T07:30:05;19.00;77.80
4306;DHT22;2166;49.926;8.608;2023-07-29T07:32:33;18.90;77.90
4306;DHT22;2166;49.926;8.608;2023-07-29T07:35:04;18.90;78.10
4306;DHT22;2166;49.926;8.608;2023-07-29T07:37:32;18.90;78.20
4306;DHT22;2166;49.926;8.608;2023-07-29T07:40:02;18.90;78.40
4306;DHT22;2166;49.926;8.608;2023-07-29T07:42:30;19.00;78.40
4306;DHT22;2166;49.926;8.608;2023-07-29T07:44:59;19.00;78.40
4306;DHT22;2166;49.926;8.608;2023-07-29T07:47:27;19.00;78.30
4306;DHT22;2166;49.926;8.608;2023-07-29T07:49:56;19.00;78.20
4306;DHT22;2166;49.926;8.608;2023-07-29T07:52:27;19.00;78.00
4306;DHT22;2166;49.926;8.608;2023-07-29T07:54:56;19.00;77.70
4306;DHT22;2166;49.926;8.608;2023-07-29T07:57:24;19.10;77.50
4306;DHT22;2166;49.926;8.608;2023-07-29T07:59:53;19.10;77.30
4306;DHT22;2166;49.926;8.608;2023-07-29T08:02:25;19.20;77.20
4306;DHT22;2166;49.926;8.608;2023-07-29T08:04:53;19.40;77.10
4306;DHT22;2166;49.926;8.608;2023-07-29T08:07:22;19.40;76.70
4306;DHT22;2166;49.926;8.608;2023-07-29T08:09:52;19.40;77.10
4306;DHT22;2166;49.926;8.608;2023-07-29T08:12:20;19.50;77.10
4306;DHT22;2166;49.926;8.608;2023-07-29T08:14:48;19.60;76.90
4306;DHT22;2166;49.926;8.608;2023-07-29T08:17:17;19.80;77.00
4306;DHT22;2166;49.926;8.608;2023-07-29T08:19:45;20.00;76.80
4306;DHT22;2166;49.926;8.608;2023-07-29T08:22:13;20.20;76.50
4306;DHT22;2166;49.926;8.608;2023-07-29T08:24:44;20.30;76.20
4306;DHT22;2166;49.926;8.608;2023-07-29T08:27:14;20.70;76.40
4306;DHT22;2166;49.926;8.608;2023-07-29T08:29:42;21.50;75.70
4306;DHT22;2166;49.926;8.608;2023-07-29T08:32:11;22.90;74.70
4306;DHT22;2166;49.926;8.608;2023-07-29T08:34:39;24.90;74.60
4306;DHT22;2166;49.926;8.608;2023-07-29T08:37:08;25.50;73.10
4306;DHT22;2166;49.926;8.608;2023-07-29T08:39:36;26.00;73.10
4306;DHT22;2166;49.926;8.608;2023-07-29T08:42:07;26.10;73.30
4306;DHT22;2166;49.926;8.608;2023-07-29T08:44:42;25.70;72.40
4306;DHT22;2166;49.926;8.608;2023-07-29T08:47:11;25.70;73.40
4306;DHT22;2166;49.926;8.608;2023-07-29T08:49:41;25.80;73.30
4306;DHT22;2166;49.926;8.608;2023-07-29T08:52:09;25.80;73.20
4306;DHT22;2166;49.926;8.608;2023-07-29T08:54:39;25.50;73.10
4306;DHT22;2166;49.926;8.608;2023-07-29T08:57:07;24.90;72.90
4306;DHT22;2166;49.926;8.608;2023-07-29T08:59:36;24.60;73.20
4306;DHT22;2166;49.926;8.608;2023-07-29T09:02:07;24.30;73.70
4306;DHT22;2166;49.926;8.608;2023-07-29T09:04:36;24.40;73.20
4306;DHT22;2166;49.926;8.608;2023-07-29T09:07:05;24.90;73.70
4306;DHT22;2166;49.926;8.608;2023-07-29T09:09:35;25.50;73.50
4306;DHT22;2166;49.926;8.608;2023-07-29T09:12:05;26.10;73.10
4306;DHT22;2166;49.926;8.608;2023-07-29T09:14:34;25.90;73.00
4306;DHT22;2166;49.926;8.608;2023-07-29T09:17:02;26.20;73.00
4306;DHT22;2166;49.926;8.608;2023-07-29T09:19:36;26.10;72.90
4306;DHT22;2166;49.926;8.608;2023-07-29T09:22:05;25.50;73.30
4306;DHT22;2166;49.926;8.608;2023-07-29T09:24:45;25.50;73.80
4306;DHT22;2166;49.926;8.608;2023-07-29T09:27:24;26.00;72.70
4306;DHT22;2166;49.926;8.608;2023-07-29T09:29:55;25.90;73.00
4306;DHT22;2166;49.926;8.608;2023-07-29T09:32:25;25.60;73.40
4306;DHT22;2166;49.926;8.608;2023-07-29T09:34:54;25.10;73.20
4306;DHT22;2166;49.926;8.608;2023-07-29T09:37:23;25.80;73.50
4306;DHT22;2166;49.926;8.608;2023-07-29T09:39:52;27.10;71.90
4306;DHT22;2166;49.926;8.608;2023-07-29T09:42:21;28.10;70.70
4306;DHT22;2166;49.926;8.608;2023-07-29T09:44:50;29.70;69.50
4306;DHT22;2166;49.926;8.608;2023-07-29T09:47:21;29.70;69.00
4306;DHT22;2166;49.926;8.608;2023-07-29T09:49:50;30.10;68.20
4306;DHT22;2166;49.926;8.608;2023-07-29T09:52:23;30.80;66.30
4306;DHT22;2166;49.926;8.608;2023-07-29T09:54:51;30.20;66.90
4306;DHT22;2166;49.926;8.608;2023-07-29T09:57:21;30.00;67.50
4306;DHT22;2166;49.926;8.608;2023-07-29T09:59:56;29.50;67.40
4306;DHT22;2166;49.926;8.608;2023-07-29T10:02:26;29.10;69.00
4306;DHT22;2166;49.926;8.608;2023-07-29T10:04:58;29.90;67.00
4306;DHT22;2166;49.926;8.608;2023-07-29T10:07:33;31.30;65.10
4306;DHT22;2166;49.926;8.608;2023-07-29T10:10:02;32.70;59.80
4306;DHT22;2166;49.926;8.608;2023-07-29T10:12:32;33.30;58.90
4306;DHT22;2166;49.926;8.608;2023-07-29T10:15:03;32.70;59.50
4306;DHT22;2166;49.926;8.608;2023-07-29T10:17:34;31.90;60.60
4306;DHT22;2166;49.926;8.608;2023-07-29T10:20:05;32.70;59.70
4306;DHT22;2166;49.926;8.608;2023-07-29T10:22:37;33.10;57.50
4306;DHT22;2166;49.926;8.608;2023-07-29T10:25:08;33.20;57.50
4306;DHT22;2166;49.926;8.608;2023-07-29T10:27:42;33.60;57.30
4306;DHT22;2166;49.926;8.608;2023-07-29T10:30:12;33.90;55.70
4306;DHT22;2166;49.926;8.608;2023-07-29T10:32:43;34.10;56.40
4306;DHT22;2166;49.926;8.608;2023-07-29T10:35:12;33.00;57.30
4306;DHT22;2166;49.926;8.608;2023-07-29T10:37:43;31.70;61.00
4306;DHT22;2166;49.926;8.608;2023-07-29T10:40:13;30.80;63.20
4306;DHT22;2166;49.926;8.608;2023-07-29T10:42:59;30.40;64.50
4306;DHT22;2166;49.926;8.608;2023-07-29T10:45:36;29.80;66.80
4306;DHT22;2166;49.926;8.608;2023-07-29T10:48:06;29.20;68.70
4306;DHT22;2166;49.926;8.608;2023-07-29T10:50:35;29.40;69.20
4306;DHT22;2166;49.926;8.608;2023-07-29T10:53:05;29.60;68.00
4306;DHT22;2166;49.926;8.608;2023-07-29T10:55:37;29.70;67.10
4306;DHT22;2166;49.926;8.608;2023-07-29T10:58:13;29.10;68.80
4306;DHT22;2166;49.926;8.608;2023-07-29T11:00:43;28.60;70.60
4306;DHT22;2166;49.926;8.608;2023-07-29T11:03:13;29.40;68.60
4306;DHT22;2166;49.926;8.608;2023-07-29T11:05:48;29.80;67.20
4306;DHT22;2166;49.926;8.608;2023-07-29T11:08:22;30.30;65.70
4306;DHT22;2166;49.926;8.608;2023-07-29T11:11:02;30.50;65.80
4306;DHT22;2166;49.926;8.608;2023-07-29T11:13:32;30.80;64.50
4306;DHT22;2166;49.926;8.608;2023-07-29T11:16:01;30.80;63.80
4306;DHT22;2166;49.926;8.608;2023-07-29T11:18:32;30.70;64.10
4306;DHT22;2166;49.926;8.608;2023-07-29T11:21:01;32.00;62.30
4306;DHT22;2166;49.926;8.608;2023-07-29T11:23:33;33.60;56.50
4306;DHT22;2166;49.926;8.608;2023-07-29T11:26:04;34.60;53.60
4306;DHT22;2166;49.926;8.608;2023-07-29T11:28:38;33.60;53.90
4306;DHT22;2166;49.926;8.608;2023-07-29T11:31:07;32.30;55.50
4306;DHT22;2166;49.926;8.608;2023-07-29T11:33:39;31.10;58.80
4306;DHT22;2166;49.926;8.608;2023-07-29T11:36:17;30.30;60.70
4306;DHT22;2166;49.926;8.608;2023-07-29T11:38:47;29.60;62.60
4306;DHT22;2166;49.926;8.608;2023-07-29T11:41:20;29.40;64.20
4306;DHT22;2166;49.926;8.608;2023-07-29T11:43:49;29.40;64.30
4306;DHT22;2166;49.926;8.608;2023-07-29T11:46:21;29.10;62.10
4306;DHT22;2166;49.926;8.608;2023-07-29T11:48:50;29.10;59.60
4306;DHT22;2166;49.926;8.608;2023-07-29T11:51:19;30.10;59.30
4306;DHT22;2166;49.926;8.608;2023-07-29T11:53:49;31.40;54.40
4306;DHT22;2166;49.926;8.608;2023-07-29T11:56:18;32.00;53.60
4306;DHT22;2166;49.926;8.608;2023-07-29T11:58:48;32.30;52.30
4306;DHT22;2166;49.926;8.608;2023-07-29T12:01:18;32.60;50.80
4306;DHT22;2166;49.926;8.608;2023-07-29T12:03:47;33.00;51.80
4306;DHT22;2166;49.926;8.608;2023-07-29T12:06:16;32.80;49.00
4306;DHT22;2166;49.926;8.608;2023-07-29T12:08:45;32.50;50.50
4306;DHT22;2166;49.926;8.608;2023-07-29T12:11:15;31.90;50.90
4306;DHT22;2166;49.926;8.608;2023-07-29T12:13:47;31.60;50.50
4306;DHT22;2166;49.926;8.608;2023-07-29T12:16:16;31.50;51.80
4306;DHT22;2166;49.926;8.608;2023-07-29T12:18:46;31.60;50.70
4306;DHT22;2166;49.926;8.608;2023-07-29T12:21:16;31.80;50.80
4306;DHT22;2166;49.926;8.608;2023-07-29T12:23:45;32.20;51.20
4306;DHT22;2166;49.926;8.608;2023-07-29T12:26:15;32.10;50.70
4306;DHT22;2166;49.926;8.608;2023-07-29T12:28:46;31.10;51.50
4306;DHT22;2166;49.926;8.608;2023-07-29T12:31:15;31.50;51.30
4306;DHT22;2166;49.926;8.608;2023-07-29T12:33:43;31.50;49.80
4306;DHT22;2166;49.926;8.608;2023-07-29T12:36:12;31.20;50.00
4306;DHT22;2166;49.926;8.608;2023-07-29T12:38:42;31.30;50.90
4306;DHT22;2166;49.926;8.608;2023-07-29T12:41:11;31.70;50.90
4306;DHT22;2166;49.926;8.608;2023-07-29T12:43:41;32.50;50.00
4306;DHT22;2166;49.926;8.608;2023-07-29T12:46:09;32.90;48.70
4306;DHT22;2166;49.926;8.608;2023-07-29T12:48:38;32.70;47.10
4306;DHT22;2166;49.926;8.608;2023-07-29T12:51:07;33.00;47.30
4306;DHT22;2166;49.926;8.608;2023-07-29T12:53:35;33.10;47.80
4306;DHT22;2166;49.926;8.608;2023-07-29T12:56:06;32.70;47.90
4306;DHT22;2166;49.926;8.608;2023-07-29T12:58:34;32.90;47.50
4306;DHT22;2166;49.926;8.608;2023-07-29T13:01:04;33.00;46.50
4306;DHT22;2166;49.926;8.608;2023-07-29T13:03:33;33.30;46.90
4306;DHT22;2166;49.926;8.608;2023-07-29T13:06:01;33.40;45.90
4306;DHT22;2166;49.926;8.608;2023-07-29T13:08:30;33.30;45.40
4306;DHT22;2166;49.926;8.608;2023-07-29T13:10:58;33.00;47.00
4306;DHT22;2166;49.926;8.608;2023-07-29T13:13:27;33.20;46.00
4306;DHT22;2166;49.926;8.608;2023-07-29T13:15:56;32.80;45.30
4306;DHT22;2166;49.926;8.608;2023-07-29T13:18:29;32.40;47.40
4306;DHT22;2166;49.926;8.608;2023-07-29T13:20:59;32.30;47.20
4306;DHT22;2166;49.926;8.608;2023-07-29T13:23:27;32.20;47.70
4306;DHT22;2166;49.926;8.608;2023-07-29T13:25:56;32.10;47.50
4306;DHT22;2166;49.926;8.608;2023-07-29T13:28:25;32.00;47.00
4306;DHT22;2166;49.926;8.608;2023-07-29T13:30:53;31.70;47.00
4306;DHT22;2166;49.926;8.608;2023-07-29T13:33:22;31.50;47.50
4306;DHT22;2166;49.926;8.608;2023-07-29T13:35:51;31.70;47.70
4306;DHT22;2166;49.926;8.608;2023-07-29T13:38:20;32.00;47.20
4306;DHT22;2166;49.926;8.608;2023-07-29T13:40:50;32.00;45.70
4306;DHT22;2166;49.926;8.608;2023-07-29T13:43:18;31.60;46.20
4306;DHT22;2166;49.926;8.608;2023-07-29T13:45:47;31.30;47.60
4306;DHT22;2166;49.926;8.608;2023-07-29T13:48:17;31.50;47.50
4306;DHT22;2166;49.926;8.608;2023-07-29T13:50:46;31.70;47.20
4306;DHT22;2166;49.926;8.608;2023-07-29T13:53:16;32.10;46.70
4306;DHT22;2166;49.926;8.608;2023-07-29T13:55:44;32.20;45.30
4306;DHT22;2166;49.926;8.608;2023-07-29T13:58:12;32.50;43.90
4306;DHT22;2166;49.926;8.608;2023-07-29T14:00:41;32.50;44.70
4306;DHT22;2166;49.926;8.608;2023-07-29T14:03:10;32.20;45.30
4306;DHT22;2166;49.926;8.608;2023-07-29T14:05:38;32.30;45.00
4306;DHT22;2166;49.926;8.608;2023-07-29T14:08:07;32.60;45.10
4306;DHT22;2166;49.926;8.608;2023-07-29T14:10:37;32.30;46.10
4306;DHT22;2166;49.926;8.608;2023-07-29T14:13:06;31.90;47.00
4306;DHT22;2166;49.926;8.608;2023-07-29T14:15:34;31.90;46.60
4306;DHT22;2166;49.926;8.608;2023-07-29T14:18:03;31.40;47.10
4306;DHT22;2166;49.926;8.608;2023-07-29T14:20:32;31.40;47.20
4306;DHT22;2166;49.926;8.608;2023-07-29T14:23:01;31.20;47.50
4306;DHT22;2166;49.926;8.608;2023-07-29T14:25:29;31.10;47.50
4306;DHT22;2166;49.926;8.608;2023-07-29T14:27:59;31.10;48.40
4306;DHT22;2166;49.926;8.608;2023-07-29T14:30:28;31.40;47.50
4306;DHT22;2166;49.926;8.608;2023-07-29T14:32:56;31.20;46.70
4306;DHT22;2166;49.926;8.608;2023-07-29T14:35:25;30.90;47.70
4306;DHT22;2166;49.926;8.608;2023-07-29T14:37:54;30.70;48.60
4306;DHT22;2166;49.926;8.608;2023-07-29T14:40:22;30.90;48.80
4306;DHT22;2166;49.926;8.608;2023-07-29T14:42:53;31.00;48.00
4306;DHT22;2166;49.926;8.608;2023-07-29T14:45:25;31.20;48.10
4306;DHT22;2166;49.926;8.608;2023-07-29T14:47:54;31.30;48.10
4306;DHT22;2166;49.926;8.608;2023-07-29T14:50:22;31.10;48.30
4306;DHT22;2166;49.926;8.608;2023-07-29T14:52:50;30.60;48.50
4306;DHT22;2166;49.926;8.608;2023-07-29T14:55:19;30.40;49.20
4306;DHT22;2166;49.926;8.608;2023-07-29T14:57:47;29.80;50.00
4306;DHT22;2166;49.926;8.608;2023-07-29T15:00:16;29.40;51.40
4306;DHT22;2166;49.926;8.608;2023-07-29T15:02:46;29.60;51.50
4306;DHT22;2166;49.926;8.608;2023-07-29T15:05:14;29.80;51.70
4306;DHT22;2166;49.926;8.608;2023-07-29T15:07:42;29.90;51.20
4306;DHT22;2166;49.926;8.608;2023-07-29T15:10:14;29.60;51.40
4306;DHT22;2166;49.926;8.608;2023-07-29T15:12:43;29.40;52.80
4306;DHT22;2166;49.926;8.608;2023-07-29T15:15:12;29.40;53.00
4306;DHT22;2166;49.926;8.608;2023-07-29T15:17:41;29.40;53.00
4306;DHT22;2166;49.926;8.608;2023-07-29T15:20:12;29.30;53.00
4306;DHT22;2166;49.926;8.608;2023-07-29T15:22:40;29.20;52.70
4306;DHT22;2166;49.926;8.608;2023-07-29T15:25:18;29.70;52.60
4306;DHT22;2166;49.926;8.608;2023-07-29T15:27:47;30.20;50.30
4306;DHT22;2166;49.926;8.608;2023-07-29T15:30:15;30.00;51.20
4306;DHT22;2166;49.926;8.608;2023-07-29T15:32:44;29.60;51.30
4306;DHT22;2166;49.926;8.608;2023-07-29T15:35:14;29.60;51.90
4306;DHT22;2166;49.926;8.608;2023-07-29T15:37:44;29.90;50.90
4306;DHT22;2166;49.926;8.608;2023-07-29T15:40:13;29.70;51.20
4306;DHT22;2166;49.926;8.608;2023-07-29T15:42:44;29.10;52.00
4306;DHT22;2166;49.926;8.608;2023-07-29T15:45:12;28.50;53.20
4306;DHT22;2166;49.926;8.608;2023-07-29T15:47:41;28.10;54.50
4306;DHT22;2166;49.926;8.608;2023-07-29T15:50:10;27.70;55.60
4306;DHT22;2166;49.926;8.608;2023-07-29T15:52:40;27.60;56.50
4306;DHT22;2166;49.926;8.608;2023-07-29T15:55:10;27.40;57.10
4306;DHT22;2166;49.926;8.608;2023-07-29T15:57:38;27.40;58.00
4306;DHT22;2166;49.926;8.608;2023-07-29T16:00:08;27.60;58.20
4306;DHT22;2166;49.926;8.608;2023-07-29T16:02:41;28.40;55.70
4306;DHT22;2166;49.926;8.608;2023-07-29T16:05:10;29.20;54.10
4306;DHT22;2166;49.926;8.608;2023-07-29T16:07:40;29.40;53.80
4306;DHT22;2166;49.926;8.608;2023-07-29T16:10:09;29.50;54.10
4306;DHT22;2166;49.926;8.608;2023-07-29T16:12:38;29.30;53.90
4306;DHT22;2166;49.926;8.608;2023-07-29T16:15:10;28.80;53.90
4306;DHT22;2166;49.926;8.608;2023-07-29T16:17:38;28.50;55.00